Time;durP1;ratioP1;P1;durP2;ratioP2;P2;SDS_P1;SDS_P2;PMS_P1;PMS_P2;Temp;Humidity;BMP_temperature;BMP_pressure;BME280_temperature;BME280_humidity;BME280_pressure;Samples;Min_cycle;Max_cycle;Signal;HPM_P1;HPM_P2
2021/11/25 00:01:33;;;;;;;;;25.50;21.75;;;;;7.90;61.62;101038.69;4932717;28;45745;-50
2021/11/25 00:03:58;;;;;;;;;25.50;20.75;;;;;7.87;61.79;101046.72;4929025;28;45413;-46
2021/11/25 00:06:26;;;;;;;;;26.50;22.25;;;;;7.83;61.89;101046.00;4932132;28;45395;-46
2021/11/25 00:08:51;;;;;;;;;18.50;16.25;;;;;7.79;61.95;101047.03;4928969;28;45384;-47
2021/11/25 00:11:17;;;;;;;;;22.50;18.50;;;;;7.78;62.13;101051.44;4934497;28;45319;-50
2021/11/25 00:13:42;;;;;;;;;26.50;21.50;;;;;7.75;62.00;101043.72;4929417;28;45521;-51
2021/11/25 00:16:09;;;;;;;;;24.00;19.50;;;;;7.74;62.37;101043.75;4932109;28;45892;-47
2021/11/25 00:18:35;;;;;;;;;32.75;19.25;;;;;7.74;62.40;101043.75;4932981;28;45545;-50
2021/11/25 00:21:03;;;;;;;;;24.25;21.75;;;;;7.74;62.32;101042.00;4929780;28;45387;-53
2021/11/25 00:23:30;;;;;;;;;28.25;23.75;;;;;7.75;62.39;101042.88;4930371;28;45483;-49
2021/11/25 00:25:56;;;;;;;;;28.00;26.25;;;;;7.74;62.11;101035.88;4914423;28;46330;-48
2021/11/25 00:28:22;;;;;;;;;22.00;21.25;;;;;7.73;62.73;101040.28;4932660;28;45369;-50
2021/11/25 00:30:50;;;;;;;;;25.25;23.75;;;;;7.75;62.35;101035.00;4931932;28;45272;-51
2021/11/25 00:33:15;;;;;;;;;22.50;19.75;;;;;7.77;62.30;101034.00;4931035;28;45770;-48
2021/11/25 00:35:41;;;;;;;;;33.75;22.50;;;;;7.81;62.69;101027.69;4930722;28;45894;-50
2021/11/25 00:38:07;;;;;;;;;19.50;18.75;;;;;7.84;62.13;101019.72;4931142;28;45439;-46
2021/11/25 00:40:33;;;;;;;;;23.50;19.25;;;;;7.84;61.98;101014.47;4931463;28;45554;-50
2021/11/25 00:42:58;;;;;;;;;26.25;20.50;;;;;7.84;61.87;101013.63;4929761;28;45484;-50
2021/11/25 00:45:24;;;;;;;;;28.50;22.25;;;;;7.84;62.42;101008.38;4931292;28;45406;-47
2021/11/25 00:47:50;;;;;;;;;24.75;21.25;;;;;7.85;61.77;101015.31;4931843;28;45506;-49
2021/11/25 00:50:20;;;;;;;;;28.00;22.50;;;;;7.83;61.74;101014.53;4933273;28;45555;-46
2021/11/25 00:52:47;;;;;;;;;19.75;17.50;;;;;7.80;61.70;101017.28;4928225;28;45546;-47
2021/11/25 00:55:13;;;;;;;;;27.75;21.25;;;;;7.79;61.73;101016.41;4931204;28;45286;-50
2021/11/25 00:57:40;;;;;;;;;28.50;25.25;;;;;7.77;61.56;101020.03;4931145;28;45295;-47
2021/11/25 01:00:10;;;;;;;;;20.50;20.00;;;;;7.76;61.85;101011.31;4932149;28;45305;-45
2021/11/25 01:02:38;;;;;;;;;23.00;20.25;;;;;7.77;62.02;101001.69;4914027;28;46383;-51
2021/11/25 01:05:06;;;;;;;;;28.75;22.75;;;;;7.73;61.66;101008.81;4928184;28;45439;-47
2021/11/25 01:07:33;;;;;;;;;26.25;18.50;;;;;7.73;61.82;101018.44;4930418;28;45453;-48
2021/11/25 01:10:00;;;;;;;;;26.50;23.00;;;;;7.72;61.58;101020.22;4931207;28;45296;-47
2021/11/25 01:12:28;;;;;;;;;19.25;15.50;;;;;7.71;61.15;101026.38;4931121;28;45240;-47
2021/11/25 01:14:55;;;;;;;;;21.25;16.25;;;;;7.65;61.36;101024.03;4913571;28;47167;-48
2021/11/25 01:17:23;;;;;;;;;20.00;19.00;;;;;7.65;61.25;101021.41;4929798;28;45498;-49
2021/11/25 01:19:50;;;;;;;;;26.00;22.25;;;;;7.68;61.35;101023.06;4930785;28;45430;-48
2021/11/25 01:22:16;;;;;;;;;20.25;16.75;;;;;7.67;61.39;101016.13;4931215;28;45498;-49
2021/11/25 01:24:44;;;;;;;;;24.00;20.00;;;;;7.67;61.35;101019.59;4926499;28;46922;-47
2021/11/25 01:27:10;;;;;;;;;19.50;17.50;;;;;7.66;60.92;101017.88;4930829;28;45442;-51
2021/11/25 01:29:36;;;;;;;;;17.00;14.50;;;;;7.65;61.03;101025.78;4914124;28;45524;-51
2021/11/25 01:32:03;;;;;;;;;21.00;18.00;;;;;7.64;61.21;101022.31;4930055;28;45577;-47
2021/11/25 01:34:28;;;;;;;;;21.50;16.50;;;;;7.66;61.26;101020.50;4932833;28;45488;-46
2021/11/25 01:36:54;;;;;;;;;20.75;17.50;;;;;7.69;60.91;101020.38;4930904;28;45422;-46
2021/11/25 08:24:35;;;;;;;;;84.00;58.00;;;;;5.77;69.12;101135.00;4951417;23;45497;-54
2021/11/25 08:27:00;;;;;;;;;72.67;54.67;;;;;5.83;68.86;101126.94;4950724;28;46565;-53
2021/11/25 08:29:26;;;;;;;;;75.00;55.33;;;;;5.85;68.27;101135.59;4936235;28;45580;-52
2021/11/25 08:31:51;;;;;;;;;67.00;55.00;;;;;5.87;68.66;101139.00;4936532;28;45489;-54
2021/11/25 08:34:17;;;;;;;;;72.33;50.67;;;;;5.89;68.62;101145.88;4939265;28;45539;-51
2021/11/25 08:36:43;;;;;;;;;72.67;52.00;;;;;5.91;68.50;101145.84;4935294;28;45480;-50
2021/11/25 08:39:09;;;;;;;;;63.67;42.00;;;;;5.92;68.43;101138.88;4932084;28;45531;-52
2021/11/25 08:41:34;;;;;;;;;76.00;55.33;;;;;5.95;68.57;101133.56;4941277;28;45462;-52
2021/11/25 08:44:00;;;;;;;;;66.67;50.33;;;;;6.02;67.68;101124.59;4916665;28;45500;-54
2021/11/25 08:46:26;;;;;;;;;73.67;53.67;;;;;6.15;68.31;101131.09;4936753;28;45756;-51
2021/11/25 08:48:51;;;;;;;;;65.00;51.00;;;;;6.28;67.76;101137.63;4937036;28;45546;-53
2021/11/25 08:51:17;;;;;;;;;74.00;54.50;;;;;6.37;67.04;101136.44;4933397;28;45451;-50
2021/11/25 08:53:43;;;;;;;;;74.00;51.25;;;;;6.43;67.28;101136.22;4930915;28;45480;-55
2021/11/25 08:56:10;;;;;;;;;72.75;52.75;;;;;6.51;67.36;101131.56;4934935;28;46331;-50
2021/11/25 08:58:36;;;;;;;;;73.00;57.00;;;;;6.58;67.31;101134.81;4942626;28;45380;-53
2021/11/25 09:01:03;;;;;;;;;75.75;57.50;;;;;6.64;66.79;101138.06;4941756;28;45998;-51
2021/11/25 09:03:30;;;;;;;;;77.75;53.75;;;;;6.67;66.41;101137.94;4942193;28;45323;-52
2021/11/25 09:05:56;;;;;;;;;73.00;50.75;;;;;6.71;66.95;101125.59;4942613;28;45639;-53
2021/11/25 09:08:22;;;;;;;;;77.00;53.00;;;;;6.78;66.20;101128.84;4942834;28;45475;-54
2021/11/25 09:10:48;;;;;;;;;70.25;50.50;;;;;6.81;66.87;101123.50;4942553;28;45402;-53
2021/11/25 09:13:13;;;;;;;;;72.75;50.75;;;;;6.88;66.26;101122.38;4934027;28;46569;-52
2021/11/25 09:15:39;;;;;;;;;64.50;47.75;;;;;6.89;66.28;101118.84;4941158;28;45354;-49
2021/11/25 09:18:08;;;;;;;;;71.33;49.33;;;;;6.91;66.03;101122.25;4942994;28;45534;-52
2021/11/25 09:20:34;;;;;;;;;67.00;50.75;;;;;6.93;66.12;101123.03;4941084;28;45477;-53
2021/11/25 09:23:02;;;;;;;;;75.50;54.75;;;;;6.91;66.54;101112.63;4941079;28;45432;-53
2021/11/25 09:25:29;;;;;;;;;66.25;50.75;;;;;6.94;66.08;101117.72;4939553;28;45516;-51
2021/11/25 09:27:55;;;;;;;;;71.33;50.33;;;;;7.00;66.07;101114.03;4940998;28;45608;-52
2021/11/25 09:30:20;;;;;;;;;67.25;50.75;;;;;7.08;65.68;101117.19;4942114;28;45927;-49
2021/11/25 09:32:47;;;;;;;;;66.00;51.00;;;;;7.16;66.45;101117.75;4942368;28;45466;-52
2021/11/25 09:35:13;;;;;;;;;71.75;52.25;;;;;7.25;66.10;101117.38;4942422;28;45419;-53
2021/11/25 09:37:39;;;;;;;;;69.67;52.67;;;;;7.34;65.79;101117.94;4942607;28;45239;-52
2021/11/25 09:40:11;;;;;;;;;70.67;53.33;;;;;7.40;65.33;101117.72;4941930;28;46134;-50
2021/11/25 09:42:37;;;;;;;;;74.33;54.00;;;;;7.38;65.20;101104.66;4942487;28;45326;-54
2021/11/25 09:45:05;;;;;;;;;74.25;55.25;;;;;7.37;65.19;101108.22;4942200;28;45290;-53
2021/11/25 09:47:32;;;;;;;;;80.00;55.00;;;;;7.42;65.22;101115.88;4942106;28;45239;-53
2021/11/25 09:49:58;;;;;;;;;70.67;50.33;;;;;7.42;64.72;101114.09;4924784;28;46523;-54
2021/11/25 09:52:24;;;;;;;;;69.00;53.75;;;;;7.43;65.06;101114.97;4941546;28;45362;-51
2021/11/25 09:54:49;;;;;;;;;71.00;53.33;;;;;7.47;65.25;101106.91;4941728;28;45406;-54
2021/11/25 09:57:15;;;;;;;;;80.33;54.67;;;;;7.55;65.38;101124.94;4942043;28;45409;-53
2021/11/25 09:59:41;;;;;;;;;79.00;58.33;;;;;7.60;64.71;101124.78;4941776;28;45930;-53
2021/11/25 10:02:06;;;;;;;;;72.25;53.50;;;;;7.60;64.79;101120.38;4942033;28;45280;-49
2021/11/25 10:04:33;;;;;;;;;73.00;54.25;;;;;7.66;64.74;101112.28;4942075;28;45377;-53
2021/11/25 10:06:59;;;;;;;;;66.25;48.00;;;;;7.74;64.78;101120.69;4942214;28;45485;-50
2021/11/25 10:09:40;;;;;;;;;77.67;57.33;;;;;7.81;64.97;101124.72;4941390;28;46188;-53
2021/11/25 10:12:36;;;;;;;;;77.67;56.67;;;;;7.91;64.52;101127.84;4941919;28;45497;-49
2021/11/25 10:15:32;;;;;;;;;75.00;57.67;;;;;8.02;64.45;101130.00;4945007;28;45265;-51
2021/11/25 10:18:01;;;;;;;;;96.33;66.00;;;;;8.06;64.44;101116.69;4945291;28;45273;-50
2021/11/25 10:20:29;;;;;;;;;83.67;58.33;;;;;8.11;64.31;101127.84;4944795;28;45418;-49
2021/11/25 10:23:01;;;;;;;;;78.67;58.67;;;;;8.16;63.72;101122.41;4945241;28;45387;-51
2021/11/25 10:25:47;;;;;;;;;76.67;56.00;;;;;8.17;64.24;101120.63;4944783;28;45335;-54
2021/11/25 10:28:26;;;;;;;;;75.33;54.33;;;;;8.22;64.25;101118.66;4909943;28;45391;-53
2021/11/25 10:30:55;;;;;;;;;77.67;59.33;;;;;8.22;64.10;101119.53;4943169;28;45456;-49
2021/11/25 10:33:28;;;;;;;;;79.67;58.33;;;;;8.21;63.98;101111.69;4957405;28;45401;-50
2021/11/25 10:36:26;;;;;;;;;78.00;59.00;;;;;8.22;64.66;101116.03;4941587;28;45476;-52
2021/11/25 10:41:20;;;;;;;;;73.67;55.67;;;;;8.22;64.47;101108.16;4943587;28;45717;-53
2021/11/25 10:44:22;;;;;;;;;79.00;57.33;;;;;8.25;64.46;101103.63;4944565;28;45389;-52
2021/11/25 10:46:55;;;;;;;;;74.75;52.50;;;;;8.31;64.60;101116.50;4945094;28;45367;-53
2021/11/25 10:49:41;;;;;;;;;83.75;59.00;;;;;8.30;64.08;101108.69;4944988;28;45232;-51
2021/11/25 10:52:14;;;;;;;;;75.50;55.75;;;;;8.27;63.88;101106.19;4944729;28;45407;-53
2021/11/25 10:55:00;;;;;;;;;78.00;58.00;;;;;8.28;63.86;101092.13;4944234;28;45323;-52
2021/11/25 10:57:43;;;;;;;;;68.00;55.25;;;;;8.27;63.73;101091.28;4944323;28;45315;-52
2021/11/25 11:00:16;;;;;;;;;77.25;55.00;;;;;8.25;63.70;101087.88;4945073;28;45502;-54
2021/11/25 11:02:42;;;;;;;;;75.67;57.67;;;;;8.22;63.90;101090.66;4944600;28;45347;-51
2021/11/25 11:05:14;;;;;;;;;71.75;54.50;;;;;8.22;63.54;101084.56;4944870;28;45323;-53
2021/11/25 11:07:46;;;;;;;;;75.50;55.00;;;;;8.21;64.02;101081.03;4944478;28;45403;-52
2021/11/25 11:10:27;;;;;;;;;72.00;54.25;;;;;8.24;64.11;101083.56;4944523;28;45509;-51
2021/11/25 11:15:32;;;;;;;;;63.00;49.00;;;;;8.22;63.44;101085.41;4940747;28;45897;-55
2021/11/25 11:20:35;;;;;;;;;70.50;49.75;;;;;8.14;63.85;101092.75;4935256;28;45511;-50
2021/11/25 11:23:05;;;;;;;;;68.75;52.50;;;;;8.12;63.51;101084.06;4932469;28;45371;-50
2021/11/25 11:25:34;;;;;;;;;67.75;49.75;;;;;8.12;63.57;101089.31;4941395;28;45400;-50
2021/11/25 11:28:02;;;;;;;;;74.75;53.75;;;;;8.16;63.46;101080.41;4950540;28;45420;-49
2021/11/25 11:30:28;;;;;;;;;64.25;49.75;;;;;8.22;63.46;101081.94;4944327;28;45425;-53
2021/11/25 11:32:55;;;;;;;;;77.50;56.00;;;;;8.28;63.25;101089.50;4943611;28;45406;-51
2021/11/25 11:35:24;;;;;;;;;69.25;50.75;;;;;8.32;63.18;101081.44;4931613;28;45331;-54
2021/11/25 11:37:52;;;;;;;;;65.50;49.50;;;;;8.39;63.05;101082.06;4943597;28;45390;-51
2021/11/25 11:40:20;;;;;;;;;64.50;51.25;;;;;8.47;63.14;101081.72;4943927;28;45493;-53
2021/11/25 11:42:48;;;;;;;;;66.75;51.00;;;;;8.49;62.66;101085.97;4943661;28;46009;-52
2021/11/25 11:45:15;;;;;;;;;64.75;47.00;;;;;8.53;62.56;101090.19;4943880;28;45349;-53
2021/11/25 11:47:41;;;;;;;;;70.50;51.25;;;;;8.56;62.68;101090.03;4943855;28;45367;-51
2021/11/25 11:50:10;;;;;;;;;71.00;50.75;;;;;8.57;62.18;101088.25;4943851;28;45453;-54
2021/11/25 11:52:58;;;;;;;;;63.25;50.50;;;;;8.59;62.71;101078.53;4942921;28;45678;-55
2021/11/25 11:55:46;;;;;;;;;65.75;49.25;;;;;8.61;62.68;101079.28;4943491;28;45415;-54
2021/11/25 11:58:30;;;;;;;;;61.50;44.75;;;;;8.66;63.14;101070.28;4943734;28;45430;-54
2021/11/25 12:01:06;;;;;;;;;74.50;53.50;;;;;8.66;62.59;101075.53;4943397;28;45432;-52
2021/11/25 12:03:36;;;;;;;;;74.00;54.25;;;;;8.59;63.24;101082.00;4943312;28;45430;-55
2021/11/25 12:06:02;;;;;;;;;71.50;51.50;;;;;8.54;63.39;101088.41;4943520;28;45367;-52
2021/11/25 12:08:37;;;;;;;;;71.75;54.25;;;;;8.52;63.37;101083.19;4943367;28;45557;-54
2021/11/25 12:11:05;;;;;;;;;70.25;53.50;;;;;8.47;63.98;101085.19;4941518;28;45331;-52
2021/11/25 12:13:40;;;;;;;;;70.75;49.75;;;;;8.37;63.90;101082.13;4942595;28;45426;-53
2021/11/25 12:16:19;;;;;;;;;62.25;49.75;;;;;8.32;64.06;101085.84;4943289;28;45423;-53
2021/11/25 12:18:53;;;;;;;;;70.00;54.25;;;;;8.31;64.76;101082.38;4942740;28;45367;-54
2021/11/25 12:21:46;;;;;;;;;71.50;53.50;;;;;8.28;64.63;101071.97;4943128;28;45386;-52
2021/11/25 12:24:30;;;;;;;;;68.25;53.25;;;;;8.30;64.87;101083.28;4938675;28;46058;-53
2021/11/25 12:27:04;;;;;;;;;63.50;53.25;;;;;8.26;65.31;101078.22;4939562;28;45491;-50
2021/11/25 12:29:38;;;;;;;;;77.00;55.50;;;;;8.26;64.99;101071.22;4933621;28;45526;-52
2021/11/25 12:35:15;;;;;;;;;78.67;57.67;;;;;8.33;65.36;101063.91;4938328;28;46054;-54
2021/11/25 12:37:46;;;;;;;;;76.75;55.00;;;;;8.35;65.25;101067.34;4935093;28;45387;-55
2021/11/25 12:40:18;;;;;;;;;75.67;54.67;;;;;8.38;65.36;101059.38;4937825;28;45415;-54
2021/11/25 12:43:05;;;;;;;;;70.50;50.75;;;;;8.39;65.39;101058.44;4932893;28;45701;-51
2021/11/25 12:45:39;;;;;;;;;72.50;54.50;;;;;8.47;65.22;101055.47;4936617;28;45433;-54
2021/11/25 12:48:04;;;;;;;;;73.00;52.25;;;;;8.59;65.27;101047.84;4939712;28;45536;-51
2021/11/25 12:50:31;;;;;;;;;68.50;47.00;;;;;8.67;65.23;101045.72;4933439;28;45960;-54
2021/11/25 12:52:56;;;;;;;;;78.25;54.75;;;;;8.74;64.60;101037.56;4934310;28;45523;-54
2021/11/25 12:55:22;;;;;;;;;72.50;53.00;;;;;8.77;64.01;101032.16;4933810;28;45993;-51
2021/11/25 12:57:52;;;;;;;;;67.75;53.75;;;;;8.78;63.99;101033.91;4936659;28;45384;-54
2021/11/25 13:00:20;;;;;;;;;61.25;46.75;;;;;8.76;64.39;101033.09;4933791;28;45435;-54
2021/11/25 13:02:45;;;;;;;;;75.75;52.25;;;;;8.81;64.48;101036.38;4933115;28;45530;-53
2021/11/25 13:05:11;;;;;;;;;70.00;51.00;;;;;8.89;64.36;101026.34;4931859;28;45718;-53
2021/11/25 13:07:47;;;;;;;;;75.00;55.50;;;;;8.98;64.40;101027.69;4936307;28;45696;-54
2021/11/25 13:10:25;;;;;;;;;73.25;54.50;;;;;9.02;63.97;101022.22;4934243;28;45326;-53
2021/11/25 13:12:51;;;;;;;;;71.50;52.50;;;;;9.04;64.21;101024.75;4932010;28;45414;-53
2021/11/25 13:15:17;;;;;;;;;66.50;52.75;;;;;9.10;64.34;101022.69;4930955;28;45478;-55
2021/11/25 13:17:56;;;;;;;;;68.75;53.50;;;;;9.10;64.05;101025.31;4932702;28;45454;-54
2021/11/25 13:20:45;;;;;;;;;61.75;47.00;;;;;9.09;64.31;101023.63;4937885;28;45470;-52
2021/11/25 13:23:14;;;;;;;;;68.75;49.50;;;;;9.06;64.52;101021.13;4938964;28;45452;-55
2021/11/25 13:25:52;;;;;;;;;66.50;52.00;;;;;9.10;64.26;101014.81;4938650;28;45550;-55
2021/11/25 13:28:24;;;;;;;;;74.75;55.00;;;;;9.12;64.78;101010.31;4939706;28;45361;-54
2021/11/25 13:31:07;;;;;;;;;70.25;54.50;;;;;9.16;64.72;101011.88;4933819;28;45640;-54
2021/11/25 13:33:34;;;;;;;;;72.50;53.00;;;;;9.20;64.85;101007.31;4940009;28;45538;-52
2021/11/25 13:36:04;;;;;;;;;69.25;50.50;;;;;9.18;64.17;101002.16;4931270;28;46076;-54
2021/11/25 13:38:30;;;;;;;;;60.75;46.50;;;;;9.19;64.25;101003.00;4934529;28;45420;-51
2021/11/25 13:40:55;;;;;;;;;69.50;52.75;;;;;9.19;64.54;101000.38;4932386;28;45295;-51
2021/11/25 13:43:21;;;;;;;;;69.75;51.00;;;;;9.18;64.63;101012.66;4936049;28;45378;-52
2021/11/25 13:45:51;;;;;;;;;68.75;54.00;;;;;9.19;64.34;101018.75;4933962;28;45980;-51
2021/11/25 13:48:21;;;;;;;;;70.00;53.25;;;;;9.14;64.71;101016.34;4930557;28;45439;-54
2021/11/25 13:50:46;;;;;;;;;74.25;52.75;;;;;9.15;64.16;101014.56;4931599;28;45479;-53
2021/11/25 13:53:11;;;;;;;;;69.50;51.75;;;;;9.15;64.60;101010.16;4933071;28;45303;-56
2021/11/25 13:55:38;;;;;;;;;69.75;51.25;;;;;9.17;64.52;101016.22;4929611;28;45730;-54
2021/11/25 13:58:04;;;;;;;;;61.00;49.00;;;;;9.16;64.76;101014.53;4937156;28;45477;-53
2021/11/25 14:00:33;;;;;;;;;64.00;50.00;;;;;9.17;64.69;101010.97;4933188;28;45458;-55
2021/11/25 14:03:06;;;;;;;;;62.75;48.00;;;;;9.17;65.09;101010.97;4934126;28;45529;-53
2021/11/25 14:05:44;;;;;;;;;62.75;49.50;;;;;9.17;65.44;101004.84;4933520;28;45557;-56
2021/11/25 14:08:09;;;;;;;;;69.75;52.50;;;;;9.17;65.26;100999.59;4939073;28;45536;-52
2021/11/25 14:10:35;;;;;;;;;71.00;50.00;;;;;9.14;65.52;101010.25;4936080;28;45409;-53
2021/11/25 14:13:04;;;;;;;;;61.75;48.75;;;;;9.09;65.77;101007.00;4935453;28;45597;-54
2021/11/25 14:15:32;;;;;;;;;60.00;47.25;;;;;9.09;65.43;101009.63;4933676;28;45403;-50
2021/11/25 14:18:04;;;;;;;;;65.50;49.50;;;;;9.09;65.48;101013.13;4933217;28;45809;-52
2021/11/25 14:20:32;;;;;;;;;65.75;48.25;;;;;9.08;66.06;101006.13;4936055;28;45498;-54
2021/11/25 14:23:14;;;;;;;;;73.25;50.00;;;;;9.09;66.19;101001.75;4931263;28;45420;-54
2021/11/25 14:25:42;;;;;;;;;62.25;50.50;;;;;9.10;66.13;100998.19;4935075;28;46245;-54
2021/11/25 14:31:23;;;;;;;;;63.25;51.25;;;;;9.10;66.52;101004.31;4933508;28;45372;-52
2021/11/25 14:33:52;;;;;;;;;62.00;50.25;;;;;9.08;65.95;101010.53;4937378;28;45963;-49
2021/11/25 14:36:26;;;;;;;;;84.67;65.33;;;;;9.05;66.22;101006.28;4932024;28;45450;-50
2021/11/25 14:38:55;;;;;;;;;62.00;49.75;;;;;9.04;66.48;101009.84;4932275;28;45387;-50
2021/11/25 14:41:26;;;;;;;;;69.25;52.50;;;;;9.05;66.58;101003.66;4935837;28;45434;-49
2021/11/25 14:43:59;;;;;;;;;73.25;55.50;;;;;9.06;66.64;101004.50;4932306;28;45388;-49
2021/11/25 14:46:24;;;;;;;;;66.25;49.75;;;;;9.07;66.94;101007.06;4932373;28;45502;-52
2021/11/25 14:48:50;;;;;;;;;61.50;48.75;;;;;9.06;66.95;101008.00;4931601;28;45363;-52
2021/11/25 14:51:18;;;;;;;;;61.75;47.75;;;;;9.09;66.83;101009.63;4934051;28;45693;-51
2021/11/25 14:53:46;;;;;;;;;60.00;48.00;;;;;9.09;67.17;101007.00;4932353;28;45458;-51
2021/11/25 14:56:25;;;;;;;;;64.25;44.25;;;;;9.10;67.08;101008.72;4931245;28;46705;-49
2021/11/25 14:58:57;;;;;;;;;72.50;54.50;;;;;9.12;67.31;101010.31;4935108;28;45363;-51
2021/11/25 15:01:29;;;;;;;;;62.75;49.25;;;;;9.12;66.92;100997.19;4936690;28;45488;-49
2021/11/25 15:04:04;;;;;;;;;71.75;44.00;;;;;9.14;66.96;101000.56;4934148;28;45450;-51
2021/11/25 15:06:44;;;;;;;;;67.75;47.00;;;;;9.14;67.00;100995.31;4934960;28;46227;-49
2021/11/25 15:09:12;;;;;;;;;62.50;46.50;;;;;9.15;67.05;101004.06;4937451;28;45510;-52
2021/11/25 15:11:38;;;;;;;;;57.50;45.50;;;;;9.12;67.28;101007.69;4936232;28;45441;-50
2021/11/25 15:14:07;;;;;;;;;65.00;47.50;;;;;9.10;67.63;101009.56;4941742;28;45707;-52
2021/11/25 15:16:33;;;;;;;;;68.50;49.75;;;;;9.10;67.67;100993.78;4942157;28;46117;-50
2021/11/25 15:18:59;;;;;;;;;61.00;47.75;;;;;9.11;67.45;100992.84;4942043;28;45530;-52
2021/11/25 15:21:25;;;;;;;;;62.00;45.50;;;;;9.10;67.84;100991.16;4941888;28;45395;-51
2021/11/25 15:23:52;;;;;;;;;56.50;45.75;;;;;9.07;67.84;100999.19;4941913;28;45520;-52
2021/11/25 15:26:19;;;;;;;;;74.25;51.25;;;;;9.08;67.64;100995.63;4941077;28;45937;-50
2021/11/25 15:28:45;;;;;;;;;57.25;44.75;;;;;9.09;68.20;100999.97;4932822;28;45395;-50
2021/11/25 15:31:11;;;;;;;;;57.75;44.00;;;;;9.10;68.13;100990.31;4942834;28;45395;-50
2021/11/25 15:33:36;;;;;;;;;63.50;47.50;;;;;9.11;68.39;100992.00;4943737;28;45593;-53
2021/11/25 15:36:07;;;;;;;;;62.25;47.50;;;;;9.08;68.01;101000.88;4943611;28;46023;-52
2021/11/25 15:38:33;;;;;;;;;67.25;48.25;;;;;9.08;68.31;100998.25;4943612;28;45378;-52
2021/11/25 15:41:00;;;;;;;;;55.50;44.00;;;;;9.08;68.31;100998.25;4942997;28;45431;-51
2021/11/25 15:43:26;;;;;;;;;64.00;46.75;;;;;9.11;68.50;100989.38;4944342;28;45356;-50
2021/11/25 15:45:52;;;;;;;;;61.00;48.75;;;;;9.12;68.47;101007.69;4943938;28;45528;-54
2021/11/25 15:48:19;;;;;;;;;67.00;47.50;;;;;9.14;68.30;100999.72;4944305;28;45324;-52
2021/11/25 15:50:46;;;;;;;;;68.50;47.75;;;;;9.13;68.60;101003.28;4944214;28;45441;-53
2021/11/25 15:53:15;;;;;;;;;66.00;45.00;;;;;9.10;68.21;100996.41;4943122;28;45228;-53
2021/11/25 15:55:42;;;;;;;;;63.25;47.50;;;;;9.06;68.20;100999.25;4943635;28;46323;-47
2021/11/25 15:58:08;;;;;;;;;67.75;50.00;;;;;9.02;68.53;101000.34;4943961;28;45260;-52
2021/11/25 16:00:34;;;;;;;;;59.00;42.75;;;;;8.99;68.92;101003.09;4943920;28;45261;-50
2021/11/25 16:03:00;;;;;;;;;56.00;44.00;;;;;8.95;68.93;101005.03;4944012;28;45250;-52
2021/11/25 16:05:26;;;;;;;;;59.25;44.75;;;;;8.94;68.88;100996.31;4943533;28;46195;-52
2021/11/25 16:07:52;;;;;;;;;63.00;45.75;;;;;8.95;69.28;101000.63;4933551;28;45437;-50
2021/11/25 16:10:18;;;;;;;;;63.75;50.00;;;;;8.94;69.57;100991.06;4932780;28;45560;-51
2021/11/25 16:12:44;;;;;;;;;64.25;48.50;;;;;8.90;69.96;100984.22;4932170;28;46842;-49
2021/11/25 16:15:11;;;;;;;;;61.25;43.25;;;;;8.90;70.23;101000.00;4938339;28;45513;-51
2021/11/25 16:17:37;;;;;;;;;67.25;48.50;;;;;8.91;70.41;100996.44;4934999;28;45740;-54
2021/11/25 16:20:05;;;;;;;;;61.25;44.50;;;;;8.94;70.67;100998.94;4935091;28;45720;-50
2021/11/25 16:22:30;;;;;;;;;65.00;45.50;;;;;8.97;70.21;100997.06;4935379;28;45429;-50
2021/11/25 16:24:56;;;;;;;;;65.00;49.50;;;;;9.00;70.57;100996.91;4932184;28;45475;-51
2021/11/25 16:27:22;;;;;;;;;63.25;48.75;;;;;9.02;70.20;101010.84;4940516;28;45644;-53
2021/11/25 16:29:48;;;;;;;;;70.00;49.25;;;;;9.02;70.45;101006.44;4932858;28;45606;-52
2021/11/25 16:32:13;;;;;;;;;75.75;52.50;;;;;8.99;70.04;101008.34;4936186;28;45549;-50
2021/11/25 16:34:39;;;;;;;;;69.00;48.75;;;;;8.97;70.23;101000.56;4937525;28;45925;-52
2021/11/25 16:37:08;;;;;;;;;65.75;52.50;;;;;9.00;70.24;101005.66;4937621;28;45437;-52
2021/11/25 16:39:34;;;;;;;;;66.75;49.50;;;;;9.01;70.20;101017.03;4932767;28;45291;-51
2021/11/25 16:42:01;;;;;;;;;68.25;52.25;;;;;9.01;70.66;101017.88;4932758;28;45466;-52
2021/11/25 16:44:28;;;;;;;;;65.00;53.25;;;;;9.02;70.56;101016.97;4932490;28;46146;-51
2021/11/25 16:49:31;;;;;;;;;67.50;50.75;;;;;8.97;70.60;101010.22;4932755;28;45372;-51
2021/11/25 16:51:57;;;;;;;;;68.75;52.50;;;;;8.97;70.84;101004.97;4933202;28;45411;-50
2021/11/25 16:54:24;;;;;;;;;64.75;50.25;;;;;8.98;71.03;101004.03;4933630;28;46538;-51
2021/11/25 16:56:51;;;;;;;;;65.00;48.00;;;;;8.99;70.99;101009.22;4936702;28;45443;-55
2021/11/25 16:59:17;;;;;;;;;55.25;42.00;;;;;9.00;70.66;101010.91;4936404;28;45640;-53
2021/11/25 17:01:43;;;;;;;;;57.25;41.00;;;;;8.99;70.64;101011.84;4935028;28;45501;-53
2021/11/25 17:04:09;;;;;;;;;55.50;43.00;;;;;8.98;70.66;101015.38;4916806;28;45641;-50
2021/11/25 17:06:35;;;;;;;;;54.25;41.75;;;;;8.98;71.21;101025.91;4931085;28;45609;-50
2021/11/25 17:09:01;;;;;;;;;50.75;40.25;;;;;8.99;70.90;101016.25;4933475;28;45472;-54
2021/11/25 17:11:27;;;;;;;;;49.25;37.00;;;;;9.01;71.18;101023.16;4932277;28;45715;-52
2021/11/25 17:13:52;;;;;;;;;40.75;32.25;;;;;9.02;71.26;101022.22;4932694;28;45782;-51
2021/11/25 17:16:18;;;;;;;;;34.50;27.00;;;;;9.03;70.91;101023.06;4932794;28;45495;-54
2021/11/25 17:18:44;;;;;;;;;51.25;36.75;;;;;8.99;71.09;101024.13;4933639;28;45555;-49
2021/11/25 17:21:11;;;;;;;;;38.50;29.75;;;;;8.98;71.19;101025.91;4936240;28;45479;-53
2021/11/25 17:23:39;;;;;;;;;43.25;33.00;;;;;8.98;71.03;101020.66;4934926;28;45521;-53
2021/11/25 17:26:05;;;;;;;;;30.75;24.75;;;;;8.98;71.25;101022.44;4936531;28;45899;-54
2021/11/25 17:28:31;;;;;;;;;36.00;27.00;;;;;8.98;70.93;101025.91;4941889;28;45453;-55
2021/11/25 17:30:56;;;;;;;;;61.00;47.00;;;;;8.98;70.92;101032.94;4931130;28;45358;-54
2021/11/25 17:33:22;;;;;;;;;28.25;21.25;;;;;8.94;71.37;101027.84;4939655;28;46088;-53
2021/11/25 17:35:49;;;;;;;;;36.50;27.00;;;;;8.95;71.14;101024.28;4933948;28;45350;-50
2021/11/25 17:38:18;;;;;;;;;18.75;16.50;;;;;8.93;71.18;101025.28;4940741;28;45466;-53
2021/11/25 17:40:44;;;;;;;;;23.50;17.00;;;;;8.92;71.27;101027.03;4930907;28;45505;-52
2021/11/25 17:43:11;;;;;;;;;21.25;14.25;;;;;8.90;70.86;101022.78;4933340;28;45830;-50
2021/11/25 17:45:43;;;;;;;;;19.00;12.75;;;;;8.90;70.84;101023.63;4931074;28;45621;-51
2021/11/25 17:48:09;;;;;;;;;10.50;8.00;;;;;8.92;71.11;101028.81;4933623;28;45466;-55
2021/11/25 17:50:37;;;;;;;;;16.00;12.50;;;;;8.93;70.96;101027.91;4932386;28;45432;-51
2021/11/25 17:53:04;;;;;;;;;13.50;11.75;;;;;8.95;71.12;101028.69;4931233;28;45918;-54
2021/11/25 17:55:29;;;;;;;;;9.00;7.75;;;;;8.94;70.88;101019.97;4931375;28;45442;-53
2021/11/25 17:57:56;;;;;;;;;9.25;7.25;;;;;8.91;70.69;101029.75;4934205;28;45366;-53
2021/11/25 18:00:23;;;;;;;;;8.00;7.00;;;;;8.87;70.58;101036.94;4942177;28;45383;-51
2021/11/25 18:02:49;;;;;;;;;11.00;8.00;;;;;8.85;71.21;101036.16;4942045;28;46438;-52
2021/11/25 18:05:17;;;;;;;;;18.75;14.75;;;;;8.85;71.25;101030.91;4941945;28;45332;-50
2021/11/25 18:07:43;;;;;;;;;11.75;10.00;;;;;8.82;70.88;101038.91;4942202;28;45323;-52
2021/11/25 18:10:10;;;;;;;;;8.75;6.25;;;;;8.80;71.48;101037.28;4941917;28;45224;-50
2021/11/25 18:12:35;;;;;;;;;11.25;6.75;;;;;8.77;71.81;101047.94;4942047;28;45387;-53
2021/11/25 18:15:03;;;;;;;;;41.00;31.00;;;;;8.74;71.79;101048.06;4942161;28;45296;-54
2021/11/25 18:17:29;;;;;;;;;7.25;6.00;;;;;8.71;71.87;101054.34;4942291;28;45338;-51
2021/11/25 18:19:55;;;;;;;;;7.50;6.00;;;;;8.68;72.30;101057.94;4941961;28;45630;-52
2021/11/25 18:22:22;;;;;;;;;10.50;8.00;;;;;8.69;72.36;101058.81;4956355;28;45352;-51
2021/11/25 18:24:47;;;;;;;;;5.75;5.75;;;;;8.65;72.65;101065.13;4940869;28;45443;-53
2021/11/25 18:27:14;;;;;;;;;10.75;7.00;;;;;8.65;72.74;101068.59;4942152;28;45347;-51